sensor_id;sensor_type;location;lat;lon;timestamp;P1;durP1;ratioP1;P2;durP2;ratioP2
68593;SDS011;55563;52.416;13.548;2023-11-21T00:01:35;1.02;;;0.80;;
68593;SDS011;55563;52.416;13.548;2023-11-21T00:03:36;0.90;;;0.70;;
68593;SDS011;55563;52.416;13.548;2023-11-21T00:05:37;1.02;;;0.70;;
68593;SDS011;55563;52.416;13.548;2023-11-21T00:07:38;0.95;;;0.70;;
68593;SDS011;55563;52.416;13.548;2023-11-21T00:09:38;1.15;;;0.88;;
68593;SDS011;55563;52.416;13.548;2023-11-21T00:11:39;1.50;;;1.00;;
68593;SDS011;55563;52.416;13.548;2023-11-21T00:13:40;1.40;;;1.08;;
68593;SDS011;55563;52.416;13.548;2023-11-21T00:15:40;1.00;;;0.88;;
68593;SDS011;55563;52.416;13.548;2023-11-21T00:17:41;1.20;;;1.00;;
68593;SDS011;55563;52.416;13.548;2023-11-21T00:19:43;1.00;;;0.90;;
68593;SDS011;55563;52.416;13.548;2023-11-21T00:21:43;1.58;;;1.13;;
68593;SDS011;55563;52.416;13.548;2023-11-21T00:23:45;1.65;;;1.10;;
68593;SDS011;55563;52.416;13.548;2023-11-21T00:25:45;1.63;;;1.00;;
68593;SDS011;55563;52.416;13.548;2023-11-21T00:27:46;1.13;;;1.02;;
68593;SDS011;55563;52.416;13.548;2023-11-21T00:29:47;2.22;;;1.30;;
68593;SDS011;55563;52.416;13.548;2023-11-21T00:31:47;1.90;;;1.20;;
68593;SDS011;55563;52.416;13.548;2023-11-21T00:33:48;2.00;;;1.15;;
68593;SDS011;55563;52.416;13.548;2023-11-21T00:35:49;1.80;;;1.30;;
68593;SDS011;55563;52.416;13.548;2023-11-21T00:37:50;2.10;;;1.40;;
68593;SDS011;55563;52.416;13.548;2023-11-21T00:39:50;2.92;;;1.90;;
68593;SDS011;55563;52.416;13.548;2023-11-21T00:41:51;3.30;;;1.80;;
68593;SDS011;55563;52.416;13.548;2023-11-21T00:43:53;3.17;;;1.80;;
68593;SDS011;55563;52.416;13.548;2023-11-21T00:45:54;3.13;;;1.90;;
68593;SDS011;55563;52.416;13.548;2023-11-21T00:47:55;3.35;;;1.80;;
68593;SDS011;55563;52.416;13.548;2023-11-21T00:49:56;5.97;;;2.25;;
68593;SDS011;55563;52.416;13.548;2023-11-21T00:51:57;4.95;;;2.38;;
68593;SDS011;55563;52.416;13.548;2023-11-21T00:54:00;4.32;;;2.38;;
68593;SDS011;55563;52.416;13.548;2023-11-21T00:56:01;4.53;;;2.60;;
68593;SDS011;55563;52.416;13.548;2023-11-21T01:00:05;3.95;;;2.10;;
68593;SDS011;55563;52.416;13.548;2023-11-21T01:02:14;4.03;;;2.03;;
68593;SDS011;55563;52.416;13.548;2023-11-21T01:04:14;4.43;;;2.38;;
68593;SDS011;55563;52.416;13.548;2023-11-21T01:06:15;4.80;;;2.50;;
68593;SDS011;55563;52.416;13.548;2023-11-21T01:08:16;6.43;;;3.17;;
68593;SDS011;55563;52.416;13.548;2023-11-21T01:10:17;4.95;;;2.50;;
68593;SDS011;55563;52.416;13.548;2023-11-21T01:12:18;7.95;;;3.70;;
68593;SDS011;55563;52.416;13.548;2023-11-21T01:14:19;6.75;;;3.50;;
68593;SDS011;55563;52.416;13.548;2023-11-21T01:16:19;5.82;;;2.95;;
68593;SDS011;55563;52.416;13.548;2023-11-21T01:18:20;7.10;;;3.65;;
68593;SDS011;55563;52.416;13.548;2023-11-21T01:20:21;7.07;;;3.50;;
68593;SDS011;55563;52.416;13.548;2023-11-21T01:22:22;7.25;;;3.53;;
68593;SDS011;55563;52.416;13.548;2023-11-21T01:24:26;7.50;;;3.92;;
68593;SDS011;55563;52.416;13.548;2023-11-21T01:26:26;8.82;;;4.15;;
68593;SDS011;55563;52.416;13.548;2023-11-21T01:28:27;7.85;;;3.40;;
68593;SDS011;55563;52.416;13.548;2023-11-21T01:30:28;7.85;;;3.65;;
68593;SDS011;55563;52.416;13.548;2023-11-21T01:32:29;8.00;;;3.65;;
68593;SDS011;55563;52.416;13.548;2023-11-21T01:34:30;11.27;;;3.90;;
68593;SDS011;55563;52.416;13.548;2023-11-21T01:36:31;7.15;;;3.70;;
68593;SDS011;55563;52.416;13.548;2023-11-21T01:38:33;7.82;;;3.72;;
68593;SDS011;55563;52.416;13.548;2023-11-21T01:41:52;7.32;;;3.80;;
68593;SDS011;55563;52.416;13.548;2023-11-21T01:43:53;7.63;;;3.30;;
68593;SDS011;55563;52.416;13.548;2023-11-21T01:45:54;7.75;;;3.63;;
68593;SDS011;55563;52.416;13.548;2023-11-21T01:47:57;5.78;;;3.15;;
68593;SDS011;55563;52.416;13.548;2023-11-21T01:49:59;9.00;;;3.80;;
68593;SDS011;55563;52.416;13.548;2023-11-21T01:52:01;7.40;;;3.60;;
68593;SDS011;55563;52.416;13.548;2023-11-21T01:54:04;7.03;;;3.25;;
68593;SDS011;55563;52.416;13.548;2023-11-21T01:56:06;9.90;;;3.55;;
68593;SDS011;55563;52.416;13.548;2023-11-21T01:58:08;7.93;;;3.80;;
68593;SDS011;55563;52.416;13.548;2023-11-21T02:00:10;7.25;;;3.72;;
68593;SDS011;55563;52.416;13.548;2023-11-21T02:02:19;6.63;;;3.30;;
68593;SDS011;55563;52.416;13.548;2023-11-21T02:04:20;7.85;;;3.53;;
68593;SDS011;55563;52.416;13.548;2023-11-21T02:06:21;7.97;;;3.50;;
68593;SDS011;55563;52.416;13.548;2023-11-21T02:08:22;7.97;;;3.38;;
68593;SDS011;55563;52.416;13.548;2023-11-21T02:10:23;10.88;;;3.78;;
68593;SDS011;55563;52.416;13.548;2023-11-21T02:12:24;8.90;;;3.63;;
68593;SDS011;55563;52.416;13.548;2023-11-21T02:14:27;9.82;;;3.88;;
68593;SDS011;55563;52.416;13.548;2023-11-21T02:16:29;8.60;;;4.25;;
68593;SDS011;55563;52.416;13.548;2023-11-21T02:18:31;13.70;;;4.20;;
68593;SDS011;55563;52.416;13.548;2023-11-21T02:20:32;10.25;;;4.28;;
68593;SDS011;55563;52.416;13.548;2023-11-21T02:22:35;9.07;;;3.78;;
68593;SDS011;55563;52.416;13.548;2023-11-21T02:24:40;10.95;;;4.55;;
68593;SDS011;55563;52.416;13.548;2023-11-21T02:26:42;11.82;;;4.10;;
68593;SDS011;55563;52.416;13.548;2023-11-21T02:28:43;9.73;;;4.05;;
68593;SDS011;55563;52.416;13.548;2023-11-21T02:30:44;9.52;;;3.33;;
68593;SDS011;55563;52.416;13.548;2023-11-21T02:32:45;10.48;;;3.78;;
68593;SDS011;55563;52.416;13.548;2023-11-21T02:34:46;9.15;;;3.67;;
68593;SDS011;55563;52.416;13.548;2023-11-21T02:36:47;8.40;;;4.07;;
68593;SDS011;55563;52.416;13.548;2023-11-21T02:38:51;6.60;;;3.03;;
68593;SDS011;55563;52.416;13.548;2023-11-21T02:40:52;7.85;;;3.20;;
68593;SDS011;55563;52.416;13.548;2023-11-21T02:42:52;6.72;;;2.85;;
68593;SDS011;55563;52.416;13.548;2023-11-21T02:44:53;8.25;;;2.92;;
68593;SDS011;55563;52.416;13.548;2023-11-21T02:46:54;7.65;;;3.05;;
68593;SDS011;55563;52.416;13.548;2023-11-21T02:48:55;6.88;;;2.72;;
68593;SDS011;55563;52.416;13.548;2023-11-21T02:50:56;7.00;;;2.85;;
68593;SDS011;55563;52.416;13.548;2023-11-21T02:52:56;6.55;;;3.10;;
68593;SDS011;55563;52.416;13.548;2023-11-21T02:54:58;6.25;;;2.70;;
68593;SDS011;55563;52.416;13.548;2023-11-21T02:56:59;4.88;;;2.60;;
68593;SDS011;55563;52.416;13.548;2023-11-21T02:59:00;6.88;;;2.75;;
68593;SDS011;55563;52.416;13.548;2023-11-21T03:01:01;4.88;;;2.45;;
68593;SDS011;55563;52.416;13.548;2023-11-21T03:03:02;5.85;;;2.53;;
68593;SDS011;55563;52.416;13.548;2023-11-21T03:05:03;5.78;;;2.88;;
68593;SDS011;55563;52.416;13.548;2023-11-21T03:07:05;5.85;;;2.60;;
68593;SDS011;55563;52.416;13.548;2023-11-21T03:09:05;8.07;;;3.08;;
68593;SDS011;55563;52.416;13.548;2023-11-21T03:11:07;5.95;;;2.60;;
68593;SDS011;55563;52.416;13.548;2023-11-21T03:13:08;5.57;;;2.40;;
68593;SDS011;55563;52.416;13.548;2023-11-21T03:15:09;5.43;;;2.05;;
68593;SDS011;55563;52.416;13.548;2023-11-21T03:17:10;7.53;;;2.40;;
68593;SDS011;55563;52.416;13.548;2023-11-21T03:19:11;5.13;;;2.47;;
68593;SDS011;55563;52.416;13.548;2023-11-21T03:21:12;6.95;;;2.65;;
68593;SDS011;55563;52.416;13.548;2023-11-21T03:23:13;4.80;;;2.30;;
68593;SDS011;55563;52.416;13.548;2023-11-21T03:25:14;5.85;;;2.55;;
68593;SDS011;55563;52.416;13.548;2023-11-21T03:27:23;4.45;;;2.15;;
68593;SDS011;55563;52.416;13.548;2023-11-21T03:29:25;5.03;;;2.40;;
68593;SDS011;55563;52.416;13.548;2023-11-21T03:31:26;5.68;;;2.72;;
68593;SDS011;55563;52.416;13.548;2023-11-21T03:33:27;4.20;;;2.28;;
68593;SDS011;55563;52.416;13.548;2023-11-21T03:35:28;4.55;;;2.50;;
68593;SDS011;55563;52.416;13.548;2023-11-21T03:37:28;4.20;;;1.80;;
68593;SDS011;55563;52.416;13.548;2023-11-21T03:39:29;5.18;;;2.25;;
68593;SDS011;55563;52.416;13.548;2023-11-21T03:41:30;4.45;;;2.40;;
68593;SDS011;55563;52.416;13.548;2023-11-21T03:43:31;6.05;;;2.53;;
68593;SDS011;55563;52.416;13.548;2023-11-21T03:45:31;3.50;;;2.05;;
68593;SDS011;55563;52.416;13.548;2023-11-21T03:47:33;4.35;;;2.17;;
68593;SDS011;55563;52.416;13.548;2023-11-21T03:49:33;3.55;;;2.00;;
68593;SDS011;55563;52.416;13.548;2023-11-21T03:51:34;5.88;;;2.47;;
68593;SDS011;55563;52.416;13.548;2023-11-21T03:53:36;5.13;;;2.53;;
68593;SDS011;55563;52.416;13.548;2023-11-21T03:55:37;3.70;;;2.05;;
68593;SDS011;55563;52.416;13.548;2023-11-21T03:57:38;3.53;;;1.83;;
68593;SDS011;55563;52.416;13.548;2023-11-21T03:59:40;3.95;;;2.10;;
68593;SDS011;55563;52.416;13.548;2023-11-21T04:01:41;4.43;;;2.15;;
68593;SDS011;55563;52.416;13.548;2023-11-21T04:03:42;3.38;;;1.92;;
68593;SDS011;55563;52.416;13.548;2023-11-21T04:05:43;4.38;;;2.00;;
68593;SDS011;55563;52.416;13.548;2023-11-21T04:07:43;3.85;;;2.33;;
68593;SDS011;55563;52.416;13.548;2023-11-21T04:09:44;3.28;;;1.83;;
68593;SDS011;55563;52.416;13.548;2023-11-21T04:11:45;3.38;;;1.98;;
68593;SDS011;55563;52.416;13.548;2023-11-21T04:13:46;3.95;;;1.98;;
68593;SDS011;55563;52.416;13.548;2023-11-21T04:15:47;3.80;;;2.03;;
68593;SDS011;55563;52.416;13.548;2023-11-21T04:17:48;3.25;;;1.35;;
68593;SDS011;55563;52.416;13.548;2023-11-21T04:19:48;2.67;;;1.70;;
68593;SDS011;55563;52.416;13.548;2023-11-21T04:21:49;4.10;;;1.80;;
68593;SDS011;55563;52.416;13.548;2023-11-21T04:23:50;3.28;;;1.88;;
68593;SDS011;55563;52.416;13.548;2023-11-21T04:25:50;4.75;;;2.00;;
68593;SDS011;55563;52.416;13.548;2023-11-21T04:27:52;3.88;;;2.08;;
68593;SDS011;55563;52.416;13.548;2023-11-21T04:29:53;4.03;;;1.90;;
68593;SDS011;55563;52.416;13.548;2023-11-21T04:31:54;2.80;;;1.70;;
68593;SDS011;55563;52.416;13.548;2023-11-21T04:33:54;3.58;;;2.13;;
68593;SDS011;55563;52.416;13.548;2023-11-21T04:35:55;3.55;;;1.98;;
68593;SDS011;55563;52.416;13.548;2023-11-21T04:37:56;4.18;;;2.20;;
68593;SDS011;55563;52.416;13.548;2023-11-21T04:39:57;3.88;;;1.83;;
68593;SDS011;55563;52.416;13.548;2023-11-21T04:41:58;3.38;;;1.70;;
68593;SDS011;55563;52.416;13.548;2023-11-21T04:43:59;3.28;;;1.75;;
68593;SDS011;55563;52.416;13.548;2023-11-21T04:46:01;3.15;;;1.70;;
68593;SDS011;55563;52.416;13.548;2023-11-21T04:48:02;2.90;;;1.60;;
68593;SDS011;55563;52.416;13.548;2023-11-21T04:52:04;2.60;;;1.50;;
68593;SDS011;55563;52.416;13.548;2023-11-21T04:54:05;2.67;;;1.50;;
68593;SDS011;55563;52.416;13.548;2023-11-21T04:56:06;2.17;;;1.35;;
68593;SDS011;55563;52.416;13.548;2023-11-21T04:58:07;2.72;;;1.35;;
68593;SDS011;55563;52.416;13.548;2023-11-21T05:00:09;2.90;;;1.50;;
68593;SDS011;55563;52.416;13.548;2023-11-21T05:02:10;2.88;;;1.58;;
68593;SDS011;55563;52.416;13.548;2023-11-21T05:04:12;2.90;;;1.38;;
68593;SDS011;55563;52.416;13.548;2023-11-21T05:06:15;3.33;;;1.75;;
68593;SDS011;55563;52.416;13.548;2023-11-21T05:08:15;2.53;;;1.40;;
68593;SDS011;55563;52.416;13.548;2023-11-21T05:10:16;3.25;;;1.63;;
68593;SDS011;55563;52.416;13.548;2023-11-21T05:12:16;2.40;;;1.48;;
68593;SDS011;55563;52.416;13.548;2023-11-21T05:14:17;2.53;;;1.50;;
68593;SDS011;55563;52.416;13.548;2023-11-21T05:16:19;3.00;;;1.48;;
68593;SDS011;55563;52.416;13.548;2023-11-21T05:18:20;1.70;;;1.25;;
68593;SDS011;55563;52.416;13.548;2023-11-21T05:20:20;3.25;;;1.70;;
68593;SDS011;55563;52.416;13.548;2023-11-21T05:22:21;1.83;;;1.25;;
68593;SDS011;55563;52.416;13.548;2023-11-21T05:24:22;2.22;;;1.30;;
68593;SDS011;55563;52.416;13.548;2023-11-21T05:26:23;2.50;;;1.25;;
68593;SDS011;55563;52.416;13.548;2023-11-21T05:28:24;3.20;;;1.30;;
68593;SDS011;55563;52.416;13.548;2023-11-21T05:30:24;2.45;;;1.25;;
68593;SDS011;55563;52.416;13.548;2023-11-21T05:32:25;2.58;;;1.30;;
68593;SDS011;55563;52.416;13.548;2023-11-21T05:34:26;2.22;;;1.30;;
68593;SDS011;55563;52.416;13.548;2023-11-21T05:36:26;2.70;;;1.35;;
68593;SDS011;55563;52.416;13.548;2023-11-21T05:38:27;2.10;;;1.20;;
68593;SDS011;55563;52.416;13.548;2023-11-21T05:40:28;2.90;;;1.55;;
68593;SDS011;55563;52.416;13.548;2023-11-21T05:42:30;3.50;;;1.55;;
68593;SDS011;55563;52.416;13.548;2023-11-21T05:44:31;1.95;;;1.40;;
68593;SDS011;55563;52.416;13.548;2023-11-21T05:46:32;2.80;;;1.40;;
68593;SDS011;55563;52.416;13.548;2023-11-21T05:48:33;2.17;;;1.30;;
68593;SDS011;55563;52.416;13.548;2023-11-21T05:50:33;1.80;;;1.10;;
68593;SDS011;55563;52.416;13.548;2023-11-21T05:52:34;2.15;;;1.45;;
68593;SDS011;55563;52.416;13.548;2023-11-21T05:54:35;2.65;;;1.38;;
68593;SDS011;55563;52.416;13.548;2023-11-21T05:56:36;3.60;;;1.65;;
68593;SDS011;55563;52.416;13.548;2023-11-21T05:58:37;2.67;;;1.45;;
68593;SDS011;55563;52.416;13.548;2023-11-21T06:00:38;2.78;;;1.55;;
68593;SDS011;55563;52.416;13.548;2023-11-21T06:02:39;3.15;;;1.38;;
68593;SDS011;55563;52.416;13.548;2023-11-21T06:04:40;3.53;;;1.83;;
68593;SDS011;55563;52.416;13.548;2023-11-21T06:06:41;2.40;;;1.33;;
68593;SDS011;55563;52.416;13.548;2023-11-21T06:08:41;3.42;;;1.80;;
68593;SDS011;55563;52.416;13.548;2023-11-21T06:10:43;4.85;;;1.50;;
68593;SDS011;55563;52.416;13.548;2023-11-21T06:12:45;2.67;;;1.40;;
68593;SDS011;55563;52.416;13.548;2023-11-21T06:14:45;2.85;;;1.33;;
68593;SDS011;55563;52.416;13.548;2023-11-21T06:16:46;2.50;;;1.65;;
68593;SDS011;55563;52.416;13.548;2023-11-21T06:18:47;3.03;;;1.55;;
68593;SDS011;55563;52.416;13.548;2023-11-21T06:20:47;2.33;;;1.58;;
68593;SDS011;55563;52.416;13.548;2023-11-21T06:22:48;2.55;;;1.40;;
68593;SDS011;55563;52.416;13.548;2023-11-21T06:24:50;1.80;;;1.25;;
68593;SDS011;55563;52.416;13.548;2023-11-21T06:26:51;2.20;;;1.35;;
68593;SDS011;55563;52.416;13.548;2023-11-21T06:28:51;4.05;;;1.55;;
68593;SDS011;55563;52.416;13.548;2023-11-21T06:30:53;5.03;;;1.42;;
68593;SDS011;55563;52.416;13.548;2023-11-21T06:32:54;2.60;;;1.23;;
68593;SDS011;55563;52.416;13.548;2023-11-21T06:34:55;2.05;;;1.52;;
68593;SDS011;55563;52.416;13.548;2023-11-21T06:36:56;2.75;;;1.55;;
68593;SDS011;55563;52.416;13.548;2023-11-21T06:38:57;2.78;;;1.33;;
68593;SDS011;55563;52.416;13.548;2023-11-21T06:40:58;2.53;;;1.40;;
68593;SDS011;55563;52.416;13.548;2023-11-21T06:42:59;1.85;;;1.38;;
68593;SDS011;55563;52.416;13.548;2023-11-21T06:44:59;2.33;;;1.35;;
68593;SDS011;55563;52.416;13.548;2023-11-21T06:47:06;2.47;;;1.33;;
68593;SDS011;55563;52.416;13.548;2023-11-21T06:49:06;2.13;;;1.30;;
68593;SDS011;55563;52.416;13.548;2023-11-21T06:51:07;3.85;;;1.77;;
68593;SDS011;55563;52.416;13.548;2023-11-21T06:53:08;2.47;;;1.42;;
68593;SDS011;55563;52.416;13.548;2023-11-21T06:55:10;3.05;;;1.67;;
68593;SDS011;55563;52.416;13.548;2023-11-21T06:57:11;2.88;;;1.48;;
68593;SDS011;55563;52.416;13.548;2023-11-21T06:59:12;1.85;;;1.23;;
68593;SDS011;55563;52.416;13.548;2023-11-21T07:01:13;2.55;;;1.60;;
68593;SDS011;55563;52.416;13.548;2023-11-21T07:03:15;2.30;;;1.40;;
68593;SDS011;55563;52.416;13.548;2023-11-21T07:05:15;2.28;;;1.25;;
68593;SDS011;55563;52.416;13.548;2023-11-21T07:07:20;3.10;;;1.48;;
68593;SDS011;55563;52.416;13.548;2023-11-21T07:09:21;2.78;;;1.42;;
68593;SDS011;55563;52.416;13.548;2023-11-21T07:13:23;2.08;;;1.52;;
68593;SDS011;55563;52.416;13.548;2023-11-21T07:15:24;2.45;;;1.50;;
68593;SDS011;55563;52.416;13.548;2023-11-21T07:17:26;2.05;;;1.30;;
68593;SDS011;55563;52.416;13.548;2023-11-21T07:19:27;2.97;;;1.60;;
68593;SDS011;55563;52.416;13.548;2023-11-21T07:21:27;3.08;;;1.30;;
68593;SDS011;55563;52.416;13.548;2023-11-21T07:23:28;3.30;;;1.80;;
68593;SDS011;55563;52.416;13.548;2023-11-21T07:25:29;2.53;;;1.40;;
68593;SDS011;55563;52.416;13.548;2023-11-21T07:27:29;2.50;;;1.55;;
68593;SDS011;55563;52.416;13.548;2023-11-21T07:29:30;1.90;;;1.27;;
68593;SDS011;55563;52.416;13.548;2023-11-21T07:31:31;3.88;;;1.70;;
68593;SDS011;55563;52.416;13.548;2023-11-21T07:33:34;3.00;;;1.50;;
68593;SDS011;55563;52.416;13.548;2023-11-21T07:35:35;3.17;;;1.83;;
68593;SDS011;55563;52.416;13.548;2023-11-21T07:37:36;2.67;;;1.75;;
68593;SDS011;55563;52.416;13.548;2023-11-21T07:39:36;2.58;;;1.23;;
68593;SDS011;55563;52.416;13.548;2023-11-21T07:41:37;3.90;;;1.30;;
68593;SDS011;55563;52.416;13.548;2023-11-21T07:43:45;4.07;;;2.05;;
68593;SDS011;55563;52.416;13.548;2023-11-21T07:47:47;3.58;;;1.60;;
68593;SDS011;55563;52.416;13.548;2023-11-21T07:49:48;3.67;;;1.35;;
68593;SDS011;55563;52.416;13.548;2023-11-21T07:51:48;3.80;;;1.80;;
68593;SDS011;55563;52.416;13.548;2023-11-21T07:53:49;3.03;;;1.63;;
68593;SDS011;55563;52.416;13.548;2023-11-21T07:55:50;3.15;;;1.42;;
68593;SDS011;55563;52.416;13.548;2023-11-21T07:57:51;4.53;;;2.00;;
68593;SDS011;55563;52.416;13.548;2023-11-21T07:59:51;4.00;;;1.70;;
68593;SDS011;55563;52.416;13.548;2023-11-21T08:01:54;4.40;;;1.77;;
68593;SDS011;55563;52.416;13.548;2023-11-21T08:03:55;6.10;;;2.10;;
68593;SDS011;55563;52.416;13.548;2023-11-21T08:05:58;5.63;;;2.13;;
68593;SDS011;55563;52.416;13.548;2023-11-21T08:08:00;4.53;;;2.10;;
68593;SDS011;55563;52.416;13.548;2023-11-21T08:10:01;4.68;;;1.65;;
68593;SDS011;55563;52.416;13.548;2023-11-21T08:12:02;4.95;;;2.08;;
68593;SDS011;55563;52.416;13.548;2023-11-21T08:14:03;5.40;;;2.03;;
68593;SDS011;55563;52.416;13.548;2023-11-21T08:18:07;5.78;;;1.88;;
68593;SDS011;55563;52.416;13.548;2023-11-21T08:20:08;6.70;;;2.65;;
68593;SDS011;55563;52.416;13.548;2023-11-21T08:22:11;5.65;;;1.90;;
68593;SDS011;55563;52.416;13.548;2023-11-21T08:24:11;5.45;;;2.35;;
68593;SDS011;55563;52.416;13.548;2023-11-21T08:26:12;6.05;;;2.30;;
68593;SDS011;55563;52.416;13.548;2023-11-21T08:28:16;10.80;;;2.45;;
68593;SDS011;55563;52.416;13.548;2023-11-21T08:30:17;6.07;;;2.35;;
68593;SDS011;55563;52.416;13.548;2023-11-21T08:32:19;7.68;;;2.58;;
68593;SDS011;55563;52.416;13.548;2023-11-21T08:34:20;5.78;;;1.83;;
68593;SDS011;55563;52.416;13.548;2023-11-21T08:36:21;3.83;;;1.98;;
68593;SDS011;55563;52.416;13.548;2023-11-21T08:38:24;4.18;;;1.98;;
68593;SDS011;55563;52.416;13.548;2023-11-21T08:40:25;5.90;;;2.13;;
68593;SDS011;55563;52.416;13.548;2023-11-21T08:42:26;3.97;;;1.67;;
68593;SDS011;55563;52.416;13.548;2023-11-21T08:44:30;7.35;;;2.17;;
68593;SDS011;55563;52.416;13.548;2023-11-21T08:46:30;5.72;;;2.30;;
68593;SDS011;55563;52.416;13.548;2023-11-21T08:48:31;6.05;;;2.20;;
68593;SDS011;55563;52.416;13.548;2023-11-21T08:50:32;3.05;;;1.65;;
68593;SDS011;55563;52.416;13.548;2023-11-21T08:52:33;3.95;;;1.83;;
68593;SDS011;55563;52.416;13.548;2023-11-21T08:54:34;3.53;;;1.48;;
68593;SDS011;55563;52.416;13.548;2023-11-21T08:56:35;3.58;;;1.60;;
68593;SDS011;55563;52.416;13.548;2023-11-21T08:58:35;2.75;;;1.45;;
68593;SDS011;55563;52.416;13.548;2023-11-21T09:00:37;1.38;;;1.13;;
68593;SDS011;55563;52.416;13.548;2023-11-21T09:02:40;2.47;;;1.15;;
68593;SDS011;55563;52.416;13.548;2023-11-21T09:04:42;1.92;;;0.98;;
68593;SDS011;55563;52.416;13.548;2023-11-21T09:06:43;3.22;;;1.23;;
68593;SDS011;55563;52.416;13.548;2023-11-21T09:08:43;2.13;;;1.17;;
68593;SDS011;55563;52.416;13.548;2023-11-21T09:10:44;2.42;;;1.15;;
68593;SDS011;55563;52.416;13.548;2023-11-21T09:12:47;3.85;;;1.55;;
68593;SDS011;55563;52.416;13.548;2023-11-21T09:14:48;2.10;;;1.33;;
68593;SDS011;55563;52.416;13.548;2023-11-21T09:16:51;2.75;;;1.90;;
68593;SDS011;55563;52.416;13.548;2023-11-21T09:18:51;3.58;;;2.00;;
68593;SDS011;55563;52.416;13.548;2023-11-21T09:20:52;3.45;;;1.10;;
68593;SDS011;55563;52.416;13.548;2023-11-21T09:22:53;2.20;;;1.52;;
68593;SDS011;55563;52.416;13.548;2023-11-21T09:24:54;2.55;;;1.60;;
68593;SDS011;55563;52.416;13.548;2023-11-21T09:26:56;2.17;;;1.13;;
68593;SDS011;55563;52.416;13.548;2023-11-21T09:28:57;2.50;;;1.30;;
68593;SDS011;55563;52.416;13.548;2023-11-21T09:30:58;2.67;;;1.20;;
68593;SDS011;55563;52.416;13.548;2023-11-21T09:32:58;1.88;;;1.15;;
68593;SDS011;55563;52.416;13.548;2023-11-21T09:34:59;1.25;;;0.70;;
68593;SDS011;55563;52.416;13.548;2023-11-21T09:37:02;2.33;;;1.17;;
68593;SDS011;55563;52.416;13.548;2023-11-21T09:39:05;3.53;;;1.35;;
68593;SDS011;55563;52.416;13.548;2023-11-21T09:41:11;1.63;;;0.98;;
68593;SDS011;55563;52.416;13.548;2023-11-21T09:43:21;2.05;;;1.30;;
68593;SDS011;55563;52.416;13.548;2023-11-21T09:45:25;1.58;;;1.10;;
68593;SDS011;55563;52.416;13.548;2023-11-21T09:47:35;1.48;;;1.05;;
68593;SDS011;55563;52.416;13.548;2023-11-21T09:49:38;2.30;;;1.23;;
68593;SDS011;55563;52.416;13.548;2023-11-21T09:51:42;2.63;;;1.00;;
68593;SDS011;55563;52.416;13.548;2023-11-21T09:53:43;2.28;;;1.25;;
68593;SDS011;55563;52.416;13.548;2023-11-21T09:55:47;2.88;;;1.58;;
68593;SDS011;55563;52.416;13.548;2023-11-21T09:57:50;1.13;;;1.02;;
68593;SDS011;55563;52.416;13.548;2023-11-21T09:59:51;1.92;;;1.42;;
68593;SDS011;55563;52.416;13.548;2023-11-21T10:01:59;2.55;;;1.30;;
68593;SDS011;55563;52.416;13.548;2023-11-21T10:04:00;1.75;;;1.33;;
68593;SDS011;55563;52.416;13.548;2023-11-21T10:06:01;6.63;;;3.22;;
68593;SDS011;55563;52.416;13.548;2023-11-21T10:08:04;1.35;;;1.23;;
68593;SDS011;55563;52.416;13.548;2023-11-21T10:10:08;1.60;;;1.33;;
68593;SDS011;55563;52.416;13.548;2023-11-21T10:12:13;2.10;;;1.20;;
68593;SDS011;55563;52.416;13.548;2023-11-21T10:14:15;2.28;;;1.27;;
68593;SDS011;55563;52.416;13.548;2023-11-21T10:16:19;1.48;;;1.20;;
68593;SDS011;55563;52.416;13.548;2023-11-21T10:18:22;1.52;;;1.00;;
68593;SDS011;55563;52.416;13.548;2023-11-21T10:20:25;1.88;;;1.20;;
68593;SDS011;55563;52.416;13.548;2023-11-21T10:22:26;0.98;;;0.80;;
68593;SDS011;55563;52.416;13.548;2023-11-21T10:24:27;0.90;;;0.82;;
68593;SDS011;55563;52.416;13.548;2023-11-21T10:26:28;1.00;;;0.90;;
68593;SDS011;55563;52.416;13.548;2023-11-21T10:28:29;2.00;;;1.10;;
68593;SDS011;55563;52.416;13.548;2023-11-21T10:30:37;1.85;;;1.30;;
68593;SDS011;55563;52.416;13.548;2023-11-21T10:32:39;1.73;;;1.30;;
68593;SDS011;55563;52.416;13.548;2023-11-21T10:34:40;0.70;;;0.60;;
68593;SDS011;55563;52.416;13.548;2023-11-21T10:36:41;0.75;;;0.63;;
68593;SDS011;55563;52.416;13.548;2023-11-21T10:38:42;1.13;;;0.70;;
68593;SDS011;55563;52.416;13.548;2023-11-21T10:40:52;0.60;;;0.60;;
68593;SDS011;55563;52.416;13.548;2023-11-21T10:42:55;0.95;;;0.70;;
68593;SDS011;55563;52.416;13.548;2023-11-21T10:45:07;1.20;;;0.70;;
68593;SDS011;55563;52.416;13.548;2023-11-21T10:47:13;1.08;;;0.70;;
68593;SDS011;55563;52.416;13.548;2023-11-21T10:49:17;1.30;;;0.85;;
68593;SDS011;55563;52.416;13.548;2023-11-21T10:51:20;0.70;;;0.65;;
68593;SDS011;55563;52.416;13.548;2023-11-21T10:53:21;1.13;;;0.93;;
68593;SDS011;55563;52.416;13.548;2023-11-21T10:55:22;1.40;;;0.80;;
68593;SDS011;55563;52.416;13.548;2023-11-21T10:57:25;0.80;;;0.63;;
68593;SDS011;55563;52.416;13.548;2023-11-21T10:59:28;1.02;;;0.75;;
68593;SDS011;55563;52.416;13.548;2023-11-21T11:01:31;4.13;;;1.20;;
68593;SDS011;55563;52.416;13.548;2023-11-21T11:03:32;1.23;;;1.00;;
68593;SDS011;55563;52.416;13.548;2023-11-21T11:05:36;1.40;;;0.90;;
68593;SDS011;55563;52.416;13.548;2023-11-21T11:07:37;1.85;;;1.23;;
68593;SDS011;55563;52.416;13.548;2023-11-21T11:09:41;1.98;;;1.13;;
68593;SDS011;55563;52.416;13.548;2023-11-21T11:11:42;1.00;;;0.90;;
68593;SDS011;55563;52.416;13.548;2023-11-21T11:13:44;1.08;;;0.85;;
68593;SDS011;55563;52.416;13.548;2023-11-21T11:15:47;1.58;;;1.25;;
68593;SDS011;55563;52.416;13.548;2023-11-21T11:17:48;1.85;;;0.82;;
68593;SDS011;55563;52.416;13.548;2023-11-21T11:19:49;1.70;;;0.90;;
68593;SDS011;55563;52.416;13.548;2023-11-21T11:21:56;2.05;;;1.13;;
68593;SDS011;55563;52.416;13.548;2023-11-21T11:34:29;2.03;;;1.00;;
68593;SDS011;55563;52.416;13.548;2023-11-21T11:36:36;1.30;;;1.10;;
68593;SDS011;55563;52.416;13.548;2023-11-21T11:38:45;1.33;;;1.10;;
68593;SDS011;55563;52.416;13.548;2023-11-21T11:40:47;1.00;;;0.90;;
68593;SDS011;55563;52.416;13.548;2023-11-21T11:43:03;1.38;;;1.10;;
68593;SDS011;55563;52.416;13.548;2023-11-21T11:45:23;1.33;;;1.10;;
68593;SDS011;55563;52.416;13.548;2023-11-21T11:47:32;2.08;;;1.25;;
68593;SDS011;55563;52.416;13.548;2023-11-21T11:49:33;1.63;;;1.20;;
68593;SDS011;55563;52.416;13.548;2023-11-21T11:51:33;1.55;;;1.20;;
68593;SDS011;55563;52.416;13.548;2023-11-21T11:53:36;1.85;;;1.25;;
68593;SDS011;55563;52.416;13.548;2023-11-21T11:55:39;1.35;;;0.95;;
68593;SDS011;55563;52.416;13.548;2023-11-21T11:57:41;1.73;;;1.33;;
68593;SDS011;55563;52.416;13.548;2023-11-21T12:02:12;1.35;;;1.08;;
68593;SDS011;55563;52.416;13.548;2023-11-21T12:06:33;1.40;;;1.10;;
68593;SDS011;55563;52.416;13.548;2023-11-21T12:08:35;1.50;;;1.13;;
68593;SDS011;55563;52.416;13.548;2023-11-21T12:10:38;1.63;;;1.20;;
68593;SDS011;55563;52.416;13.548;2023-11-21T12:12:42;1.33;;;1.23;;
68593;SDS011;55563;52.416;13.548;2023-11-21T12:14:44;1.85;;;1.10;;
68593;SDS011;55563;52.416;13.548;2023-11-21T12:16:45;1.92;;;1.25;;
68593;SDS011;55563;52.416;13.548;2023-11-21T12:18:46;2.33;;;1.30;;
68593;SDS011;55563;52.416;13.548;2023-11-21T12:20:47;2.00;;;1.50;;
68593;SDS011;55563;52.416;13.548;2023-11-21T12:22:51;1.58;;;1.15;;
68593;SDS011;55563;52.416;13.548;2023-11-21T12:24:53;1.98;;;1.33;;
68593;SDS011;55563;52.416;13.548;2023-11-21T12:26:54;1.40;;;1.10;;
68593;SDS011;55563;52.416;13.548;2023-11-21T12:28:55;1.15;;;0.98;;